createdAt,value
2019-02-20T06:56:07.703Z,126.58
2019-02-20T06:58:42.222Z,127.20
2019-02-20T07:01:16.486Z,126.00
2019-02-20T07:03:51.744Z,128.45
2019-02-20T07:06:49.770Z,125.78
2019-02-20T07:09:59.094Z,128.23
2019-02-20T07:12:46.674Z,126.67
2019-02-20T07:16:00.177Z,127.53
2019-02-20T07:18:42.953Z,121.95
2019-02-20T07:21:57.182Z,124.27
2019-02-20T07:24:52.580Z,123.30
2019-02-20T07:28:04.283Z,120.35
2019-02-20T07:30:38.433Z,121.95
2019-02-20T07:33:12.790Z,121.82
2019-02-20T07:35:47.193Z,121.15
2019-02-20T07:38:21.537Z,122.00
2019-02-20T07:40:56.077Z,118.90
2019-02-20T07:43:30.377Z,120.37
2019-02-20T07:46:04.540Z,122.17
2019-02-20T07:48:38.585Z,125.67
2019-02-20T07:51:14.932Z,125.50
2019-02-20T07:53:49.270Z,129.42
2019-02-20T07:56:24.151Z,126.58
2019-02-20T07:58:58.985Z,122.80
2019-02-20T08:01:33.407Z,120.10
2019-02-20T08:04:07.707Z,119.40
2019-02-20T08:06:41.917Z,127.07
2019-02-20T08:09:16.056Z,113.92
2019-02-20T08:11:50.183Z,112.03
2019-02-20T08:14:24.447Z,116.85
2019-02-20T08:16:59.459Z,114.20
2019-02-20T08:19:33.698Z,114.10
2019-02-20T08:22:07.902Z,113.60
2019-02-20T08:24:42.021Z,113.55
2019-02-20T08:27:16.446Z,113.72
2019-02-20T08:29:50.669Z,113.50
2019-02-20T08:32:24.972Z,119.67
2019-02-20T08:34:59.077Z,117.60
2019-02-20T08:37:33.485Z,116.53
2019-02-20T08:40:08.313Z,115.22
2019-02-20T08:42:42.410Z,110.72
2019-02-20T08:45:17.725Z,109.90
2019-02-20T08:47:52.081Z,109.97
2019-02-20T08:50:26.239Z,106.92
2019-02-20T08:53:00.611Z,107.72
2019-02-20T08:55:34.835Z,106.63
2019-02-20T08:58:09.427Z,102.20
2019-02-20T09:00:44.839Z,103.20
2019-02-20T09:03:19.666Z,101.70
2019-02-20T09:05:54.769Z,99.05
2019-02-20T09:08:29.936Z,98.92
2019-02-20T09:11:04.653Z,95.95
2019-02-20T09:13:38.918Z,96.40
2019-02-20T09:16:13.009Z,95.00
2019-02-20T09:18:47.224Z,94.35
2019-02-20T09:21:21.428Z,93.05
2019-02-20T09:23:56.177Z,91.37
2019-02-20T09:26:30.188Z,88.17
2019-02-20T09:29:04.224Z,91.10
2019-02-20T09:31:39.209Z,88.50
2019-02-20T09:34:13.471Z,86.10
2019-02-20T09:36:47.625Z,86.82
2019-02-20T09:39:43.164Z,84.83
2019-02-20T09:42:18.947Z,85.07
2019-02-20T09:44:53.417Z,83.55
2019-02-20T09:47:27.761Z,83.85
2019-02-20T09:50:03.331Z,83.90
2019-02-20T09:52:38.627Z,82.30
2019-02-20T09:55:13.572Z,79.75
2019-02-20T09:57:47.748Z,82.12
2019-02-20T10:00:22.217Z,81.78
2019-02-20T10:02:56.512Z,79.55
2019-02-20T10:05:30.670Z,77.45
2019-02-20T10:08:04.892Z,80.40
2019-02-20T10:10:39.767Z,79.40
2019-02-20T10:13:14.143Z,77.12
2019-02-20T10:15:48.323Z,78.78
2019-02-20T10:18:22.648Z,77.70
2019-02-20T10:20:57.808Z,77.50
2019-02-20T10:23:31.908Z,77.72
2019-02-20T10:26:06.803Z,76.42
2019-02-20T10:28:43.108Z,75.70
2019-02-20T10:31:17.628Z,76.42
2019-02-20T10:33:52.077Z,75.47
2019-02-20T10:36:26.530Z,75.03
2019-02-20T10:39:00.746Z,74.25
2019-02-20T10:41:36.492Z,75.50
2019-02-20T10:44:11.305Z,72.95
2019-02-20T10:46:45.833Z,75.22
2019-02-20T10:49:20.339Z,71.77
2019-02-20T10:51:54.640Z,73.92
2019-02-20T10:54:28.993Z,71.80
2019-02-20T10:57:03.409Z,73.35
2019-02-20T10:59:37.552Z,68.50
2019-02-20T11:02:12.136Z,70.92
2019-02-20T11:04:46.782Z,70.40
2019-02-20T11:07:22.230Z,70.65
2019-02-20T11:09:56.478Z,69.67
2019-02-20T11:12:31.763Z,67.85
2019-02-20T11:15:07.387Z,67.60
2019-02-20T11:17:42.152Z,67.58
2019-02-20T11:20:17.295Z,65.52
2019-02-20T11:22:51.179Z,65.25
2019-02-20T11:25:25.241Z,65.70
2019-02-20T11:27:59.545Z,65.45
2019-02-20T11:30:33.715Z,65.05
2019-02-20T11:33:10.059Z,64.95
2019-02-20T11:35:44.396Z,64.67
2019-02-20T11:38:19.338Z,63.35
2019-02-20T11:40:53.964Z,62.53
2019-02-20T11:43:28.325Z,63.33
2019-02-20T11:46:02.787Z,63.10
2019-02-20T11:48:37.172Z,62.80
2019-02-20T11:51:11.573Z,63.33
2019-02-20T11:53:47.061Z,62.62
2019-02-20T11:56:26.638Z,62.45
2019-02-20T11:58:57.045Z,61.63
2019-02-20T12:01:31.583Z,61.13
2019-02-20T12:04:07.114Z,61.73
2019-02-20T12:06:41.256Z,62.67
2019-02-20T12:09:15.507Z,61.48
2019-02-20T12:11:51.059Z,61.13
2019-02-20T12:14:26.508Z,59.75
2019-02-20T12:17:00.812Z,60.17
2019-02-20T12:19:35.100Z,60.20
2019-02-20T12:22:09.662Z,58.65
2019-02-20T12:24:44.061Z,59.23
2019-02-20T12:27:18.379Z,57.08
2019-02-20T12:29:52.894Z,57.13
2019-02-20T12:32:27.198Z,64.32
2019-02-20T12:35:01.623Z,65.32
2019-02-20T12:37:36.061Z,63.13
2019-02-20T12:40:10.299Z,59.08
2019-02-20T12:42:44.641Z,57.67
2019-02-20T12:45:18.653Z,62.78
2019-02-20T12:47:52.926Z,59.03
2019-02-20T12:50:28.194Z,59.30
2019-02-20T12:53:02.432Z,58.25
2019-02-20T12:55:37.656Z,62.30
2019-02-20T12:58:12.068Z,62.08
2019-02-20T13:00:46.359Z,59.73
2019-02-20T13:03:20.963Z,57.62
2019-02-20T13:05:55.120Z,58.17
2019-02-20T13:08:29.893Z,59.95
2019-02-20T13:11:04.436Z,59.10
2019-02-20T13:13:38.426Z,58.90
2019-02-20T13:16:12.643Z,57.38
2019-02-20T13:18:46.932Z,60.25
2019-02-20T13:21:22.061Z,63.10
2019-02-20T13:23:56.285Z,62.05
2019-02-20T13:26:30.591Z,59.18
2019-02-20T13:29:04.846Z,60.60
2019-02-20T13:31:39.246Z,61.10
2019-02-20T13:34:13.983Z,67.42
2019-02-20T13:36:48.214Z,71.50
2019-02-20T13:39:22.493Z,75.00
2019-02-20T13:41:56.727Z,69.10
2019-02-20T13:44:32.164Z,70.85
2019-02-20T13:47:06.473Z,71.75
2019-02-20T13:49:40.909Z,67.25
2019-02-20T13:52:15.311Z,64.20
2019-02-20T13:54:50.665Z,66.45
2019-02-20T13:57:25.202Z,63.85
2019-02-20T13:59:59.404Z,62.27
2019-02-20T14:02:33.773Z,63.73
2019-02-20T14:05:08.250Z,61.13
2019-02-20T14:07:42.444Z,64.40
2019-02-20T14:10:16.449Z,63.45
2019-02-20T14:12:50.661Z,63.85
2019-02-20T14:15:24.913Z,65.55
2019-02-20T14:17:58.943Z,63.17
2019-02-20T14:20:33.434Z,64.22
2019-02-20T14:23:07.670Z,63.05
2019-02-20T14:25:42.015Z,66.77
2019-02-20T14:28:16.164Z,64.53
2019-02-20T14:30:50.326Z,62.67
2019-02-20T14:33:24.448Z,64.42
2019-02-20T14:35:58.710Z,62.67
2019-02-20T14:38:32.854Z,62.23
2019-02-20T14:41:07.086Z,64.80
2019-02-20T14:43:41.583Z,64.35
2019-02-20T14:46:17.958Z,62.93
2019-02-20T14:48:52.460Z,62.73
2019-02-20T14:51:27.618Z,63.23
2019-02-20T14:54:01.870Z,62.55
2019-02-20T14:56:36.130Z,68.42
2019-02-20T14:59:10.210Z,74.22
2019-02-20T15:01:45.703Z,70.50
2019-02-20T15:04:23.765Z,68.57
2019-02-20T15:06:58.830Z,69.87
2019-02-20T15:09:33.138Z,66.62
2019-02-20T15:12:07.688Z,73.72
2019-02-20T15:14:41.776Z,73.00
2019-02-20T15:17:16.322Z,71.17
2019-02-20T15:19:51.105Z,70.25
2019-02-20T15:22:25.991Z,69.90
2019-02-20T15:25:00.438Z,67.08
2019-02-20T15:27:34.929Z,68.07
2019-02-20T15:30:12.690Z,67.62
2019-02-20T15:32:47.037Z,65.80
2019-02-20T15:35:22.201Z,72.72
2019-02-20T15:37:56.281Z,69.80
2019-02-20T15:40:30.481Z,68.02
2019-02-20T15:43:04.644Z,68.75
2019-02-20T15:45:39.160Z,68.50
2019-02-20T15:48:13.436Z,71.30
2019-02-20T15:50:47.438Z,68.33
2019-02-20T15:53:21.653Z,71.55
2019-02-20T15:55:55.652Z,68.60
2019-02-20T15:58:29.766Z,71.85
2019-02-20T16:01:05.641Z,70.42
2019-02-20T16:03:39.894Z,70.10
2019-02-20T16:06:14.040Z,70.90
2019-02-20T16:08:48.351Z,77.42
2019-02-20T16:11:22.467Z,73.35
2019-02-20T16:13:56.466Z,73.97
2019-02-20T16:16:30.668Z,72.97
2019-02-20T16:19:04.967Z,73.80
2019-02-20T16:21:39.203Z,77.45
2019-02-20T16:24:14.383Z,76.55
2019-02-20T16:26:48.476Z,78.05
2019-02-20T16:29:22.840Z,77.53
2019-02-20T16:31:57.206Z,77.95
2019-02-20T16:34:31.475Z,75.87
2019-02-20T16:37:06.917Z,77.35
2019-02-20T16:39:42.171Z,77.35
2019-02-20T16:42:16.458Z,77.80
2019-02-20T16:44:50.796Z,78.15
2019-02-20T16:47:25.435Z,76.12
2019-02-20T16:49:59.679Z,77.22
2019-02-20T16:52:34.264Z,66.45
2019-02-20T16:55:08.702Z,59.85
2019-02-20T16:57:44.069Z,56.02
2019-02-20T17:00:19.978Z,52.90
2019-02-20T17:02:54.428Z,47.85
2019-02-20T17:05:28.980Z,44.53
2019-02-20T17:08:03.362Z,40.05
2019-02-20T17:10:37.553Z,37.25
2019-02-20T17:13:12.100Z,35.80
2019-02-20T17:15:46.215Z,33.80
2019-02-20T17:18:20.588Z,32.53
2019-02-20T17:20:54.922Z,31.07
2019-02-20T17:23:29.360Z,31.35
2019-02-20T17:26:03.792Z,29.65
2019-02-20T17:28:37.908Z,26.37
2019-02-20T17:31:12.850Z,25.60
2019-02-20T17:33:47.118Z,27.80
2019-02-20T17:36:21.539Z,23.47
2019-02-20T17:38:55.883Z,22.77
2019-02-20T17:41:30.182Z,20.20
2019-02-20T17:44:04.185Z,23.57
2019-02-20T17:46:38.549Z,23.80
2019-02-20T17:49:12.672Z,22.55
2019-02-20T17:51:48.193Z,25.60
2019-02-20T17:54:22.466Z,21.15
2019-02-20T17:56:57.045Z,22.52
2019-02-20T17:59:31.270Z,19.42
2019-02-20T18:02:05.998Z,21.27
2019-02-20T18:04:40.155Z,20.30
2019-02-20T18:07:14.493Z,19.48
2019-02-20T18:09:48.820Z,19.87
2019-02-20T18:12:23.893Z,19.02
2019-02-20T18:14:59.200Z,19.00
2019-02-20T18:17:33.263Z,18.42
2019-02-20T18:20:07.622Z,19.42
2019-02-20T18:22:43.684Z,17.57
2019-02-20T18:25:17.920Z,18.50
2019-02-20T18:27:52.147Z,17.75
2019-02-20T18:30:26.365Z,16.90
2019-02-20T18:33:00.686Z,17.17
2019-02-20T18:35:36.061Z,17.00
2019-02-20T18:38:10.451Z,15.78
2019-02-20T18:40:45.660Z,16.40
2019-02-20T18:43:19.884Z,17.48
2019-02-20T18:45:55.103Z,17.57
2019-02-20T18:48:29.612Z,18.50
2019-02-20T18:51:04.178Z,16.62
2019-02-20T18:53:38.522Z,16.00
2019-02-20T18:56:12.722Z,16.07
2019-02-20T18:58:46.690Z,17.10
2019-02-20T19:01:21.272Z,18.48
2019-02-20T19:03:56.757Z,17.20
2019-02-20T19:06:31.027Z,15.45
2019-02-20T19:09:23.614Z,16.55
2019-02-20T19:12:47.267Z,16.77
2019-02-20T19:15:57.963Z,16.32
2019-02-20T19:19:07.314Z,15.78
2019-02-20T19:22:31.296Z,15.20
2019-02-20T19:25:39.252Z,15.05
2019-02-20T19:28:29.128Z,15.08
2019-02-20T19:31:43.308Z,14.47
2019-02-20T19:34:57.746Z,13.75
2019-02-20T19:38:21.935Z,12.93
2019-02-20T19:41:35.531Z,12.88
2019-02-20T19:44:42.911Z,12.37
2019-02-20T19:47:25.865Z,12.45
2019-02-20T19:50:24.328Z,12.30
2019-02-20T19:53:24.159Z,11.48
2019-02-20T19:56:09.585Z,11.75
2019-02-20T19:59:08.959Z,11.57
2019-02-20T20:02:07.690Z,10.95
2019-02-20T20:05:15.339Z,11.88
2019-02-20T20:08:37.734Z,11.15
2019-02-20T20:12:10.549Z,11.20
2019-02-20T20:15:04.287Z,11.18
2019-02-20T20:18:12.822Z,11.30
2019-02-20T20:21:38.652Z,10.80
2019-02-20T20:24:37.183Z,10.93
2019-02-20T20:27:55.455Z,9.70
2019-02-20T20:30:46.278Z,9.83
2019-02-20T20:34:04.959Z,10.05
2019-02-20T20:37:07.462Z,9.88
2019-02-20T20:40:01.951Z,10.20
2019-02-20T20:43:16.875Z,9.38
2019-02-20T20:46:25.397Z,9.78
2019-02-20T20:49:29.751Z,9.50
2019-02-20T20:52:58.680Z,8.98
2019-02-20T20:56:19.753Z,9.50
2019-02-20T20:59:24.306Z,9.93
2019-02-20T21:02:38.214Z,8.80
2019-02-20T21:05:44.235Z,10.08
2019-02-20T21:08:27.911Z,9.55
2019-02-20T21:11:38.180Z,9.18
2019-02-20T21:14:45.094Z,9.10
2019-02-20T21:17:54.304Z,8.70
2019-02-20T21:20:59.329Z,8.58
2019-02-20T21:24:28.479Z,9.03
2019-02-20T21:27:37.617Z,8.93
2019-02-20T21:30:52.755Z,8.63
2019-02-20T21:33:56.654Z,8.63
2019-02-20T21:36:41.403Z,8.78
2019-02-20T21:40:07.196Z,9.00
2019-02-20T21:42:52.673Z,8.60
2019-02-20T21:45:51.083Z,8.03
2019-02-20T21:48:59.152Z,8.38
2019-02-20T21:51:46.585Z,8.58
2019-02-20T21:55:06.827Z,8.13
2019-02-20T21:58:20.374Z,8.00
2019-02-20T22:01:21.286Z,8.20
2019-02-20T22:04:52.621Z,8.25
2019-02-20T22:08:20.499Z,7.72
2019-02-20T22:11:24.403Z,8.10
2019-02-20T22:14:33.306Z,7.92
2019-02-20T22:17:48.611Z,8.58
2019-02-20T22:21:24.114Z,9.50
2019-02-20T22:24:46.559Z,9.18
2019-02-20T22:28:04.019Z,9.35
2019-02-20T22:31:08.928Z,9.90
2019-02-20T22:34:28.875Z,9.40
2019-02-20T22:37:32.404Z,9.60
2019-02-20T22:40:39.751Z,10.03
2019-02-20T22:44:01.771Z,9.23
2019-02-20T22:47:24.666Z,9.38
2019-02-20T22:50:21.856Z,9.53
2019-02-20T22:53:25.133Z,9.45
2019-02-20T22:56:38.743Z,9.43
2019-02-20T22:59:37.409Z,9.18
2019-02-20T23:02:59.089Z,9.48
2019-02-20T23:06:14.846Z,10.30
2019-02-20T23:09:24.343Z,11.20
2019-02-20T23:12:21.585Z,9.90
2019-02-20T23:14:59.776Z,13.35
2019-02-20T23:17:34.017Z,14.70
2019-02-20T23:20:08.406Z,14.43
2019-02-20T23:22:42.652Z,14.85
2019-02-20T23:25:16.994Z,13.28
2019-02-20T23:27:51.642Z,14.00
2019-02-20T23:30:25.918Z,12.75
2019-02-20T23:33:00.807Z,12.25
2019-02-20T23:35:36.266Z,11.70
2019-02-20T23:38:10.402Z,11.18
2019-02-20T23:40:44.612Z,11.20
2019-02-20T23:43:18.848Z,10.40
2019-02-20T23:45:53.233Z,10.63
2019-02-20T23:48:27.407Z,9.88
2019-02-20T23:51:01.561Z,10.25
2019-02-20T23:53:35.918Z,9.75
2019-02-20T23:56:10.705Z,9.90
2019-02-20T23:58:46.060Z,9.50
